sensor_id;sensor_type;location;lat;lon;timestamp;P1;durP1;ratioP1;P2;durP2;ratioP2
58384;SDS011;44185;47.844;8.966;2022-09-13T00:02:12;2.58;;;2.35;;
58384;SDS011;44185;47.844;8.966;2022-09-13T00:04:38;3.22;;;2.38;;
58384;SDS011;44185;47.844;8.966;2022-09-13T00:07:04;5.43;;;2.30;;
58384;SDS011;44185;47.844;8.966;2022-09-13T00:09:29;2.13;;;2.03;;
58384;SDS011;44185;47.844;8.966;2022-09-13T00:11:55;4.03;;;2.40;;
58384;SDS011;44185;47.844;8.966;2022-09-13T00:14:20;4.13;;;2.50;;
58384;SDS011;44185;47.844;8.966;2022-09-13T00:16:46;2.60;;;2.40;;
58384;SDS011;44185;47.844;8.966;2022-09-13T00:19:11;10.77;;;2.65;;
58384;SDS011;44185;47.844;8.966;2022-09-13T00:21:38;3.15;;;2.30;;
58384;SDS011;44185;47.844;8.966;2022-09-13T00:24:04;4.90;;;2.75;;
58384;SDS011;44185;47.844;8.966;2022-09-13T00:26:29;5.57;;;2.50;;
58384;SDS011;44185;47.844;8.966;2022-09-13T00:28:55;4.25;;;3.03;;
58384;SDS011;44185;47.844;8.966;2022-09-13T00:31:22;4.03;;;2.65;;
58384;SDS011;44185;47.844;8.966;2022-09-13T00:33:49;2.97;;;2.58;;
58384;SDS011;44185;47.844;8.966;2022-09-13T00:36:15;4.25;;;2.40;;
58384;SDS011;44185;47.844;8.966;2022-09-13T00:38:43;3.60;;;2.60;;
58384;SDS011;44185;47.844;8.966;2022-09-13T00:41:10;2.72;;;2.40;;
58384;SDS011;44185;47.844;8.966;2022-09-13T00:43:43;2.67;;;2.47;;
58384;SDS011;44185;47.844;8.966;2022-09-13T00:46:10;4.32;;;2.58;;
58384;SDS011;44185;47.844;8.966;2022-09-13T00:48:41;2.75;;;2.20;;
58384;SDS011;44185;47.844;8.966;2022-09-13T00:51:09;2.58;;;2.22;;
58384;SDS011;44185;47.844;8.966;2022-09-13T00:53:37;2.78;;;2.47;;
58384;SDS011;44185;47.844;8.966;2022-09-13T00:56:08;2.45;;;2.25;;
58384;SDS011;44185;47.844;8.966;2022-09-13T00:58:39;2.97;;;2.22;;
58384;SDS011;44185;47.844;8.966;2022-09-13T01:01:10;4.07;;;2.30;;
58384;SDS011;44185;47.844;8.966;2022-09-13T01:03:38;3.47;;;2.40;;
58384;SDS011;44185;47.844;8.966;2022-09-13T01:06:06;3.60;;;2.70;;
58384;SDS011;44185;47.844;8.966;2022-09-13T01:08:35;2.80;;;2.33;;
58384;SDS011;44185;47.844;8.966;2022-09-13T01:11:03;3.00;;;2.33;;
58384;SDS011;44185;47.844;8.966;2022-09-13T01:13:35;2.53;;;2.33;;
58384;SDS011;44185;47.844;8.966;2022-09-13T01:16:02;3.45;;;2.20;;
58384;SDS011;44185;47.844;8.966;2022-09-13T01:18:28;3.47;;;2.53;;
58384;SDS011;44185;47.844;8.966;2022-09-13T01:20:59;3.42;;;2.22;;
58384;SDS011;44185;47.844;8.966;2022-09-13T01:26:51;4.30;;;2.50;;
58384;SDS011;44185;47.844;8.966;2022-09-13T01:29:35;2.67;;;2.47;;
58384;SDS011;44185;47.844;8.966;2022-09-13T01:32:24;2.75;;;2.33;;
58384;SDS011;44185;47.844;8.966;2022-09-13T01:35:04;3.42;;;2.45;;
58384;SDS011;44185;47.844;8.966;2022-09-13T01:37:41;2.63;;;2.30;;
58384;SDS011;44185;47.844;8.966;2022-09-13T01:40:16;3.50;;;2.60;;
58384;SDS011;44185;47.844;8.966;2022-09-13T01:42:56;4.93;;;2.40;;
58384;SDS011;44185;47.844;8.966;2022-09-13T01:45:52;2.55;;;2.35;;
58384;SDS011;44185;47.844;8.966;2022-09-13T01:48:28;4.53;;;2.20;;
58384;SDS011;44185;47.844;8.966;2022-09-13T01:51:01;4.78;;;2.53;;
58384;SDS011;44185;47.844;8.966;2022-09-13T01:53:33;4.50;;;2.50;;
58384;SDS011;44185;47.844;8.966;2022-09-13T01:56:04;5.18;;;2.38;;
58384;SDS011;44185;47.844;8.966;2022-09-13T01:58:36;5.30;;;2.42;;
58384;SDS011;44185;47.844;8.966;2022-09-13T02:01:09;4.25;;;2.60;;
58384;SDS011;44185;47.844;8.966;2022-09-13T02:03:41;3.97;;;2.60;;
58384;SDS011;44185;47.844;8.966;2022-09-13T02:06:10;3.03;;;2.58;;
58384;SDS011;44185;47.844;8.966;2022-09-13T02:08:41;3.88;;;2.58;;
58384;SDS011;44185;47.844;8.966;2022-09-13T02:11:09;2.57;;;2.30;;
58384;SDS011;44185;47.844;8.966;2022-09-13T02:13:37;3.45;;;2.40;;
58384;SDS011;44185;47.844;8.966;2022-09-13T02:16:09;2.60;;;2.40;;
58384;SDS011;44185;47.844;8.966;2022-09-13T02:18:38;4.80;;;2.60;;
58384;SDS011;44185;47.844;8.966;2022-09-13T02:21:05;3.25;;;2.40;;
58384;SDS011;44185;47.844;8.966;2022-09-13T02:23:35;2.93;;;2.33;;
58384;SDS011;44185;47.844;8.966;2022-09-13T02:26:05;4.13;;;2.45;;
58384;SDS011;44185;47.844;8.966;2022-09-13T02:28:34;3.28;;;2.05;;
58384;SDS011;44185;47.844;8.966;2022-09-13T02:31:03;2.50;;;2.30;;
58384;SDS011;44185;47.844;8.966;2022-09-13T02:33:34;3.88;;;2.22;;
58384;SDS011;44185;47.844;8.966;2022-09-13T02:36:03;3.63;;;2.45;;
58384;SDS011;44185;47.844;8.966;2022-09-13T02:38:34;2.50;;;2.30;;
58384;SDS011;44185;47.844;8.966;2022-09-13T02:41:06;3.88;;;2.22;;
58384;SDS011;44185;47.844;8.966;2022-09-13T02:43:38;2.42;;;2.22;;
58384;SDS011;44185;47.844;8.966;2022-09-13T02:46:10;6.07;;;2.70;;
58384;SDS011;44185;47.844;8.966;2022-09-13T02:48:46;2.70;;;2.40;;
58384;SDS011;44185;47.844;8.966;2022-09-13T02:51:17;7.75;;;2.58;;
58384;SDS011;44185;47.844;8.966;2022-09-13T02:53:52;3.13;;;2.45;;
58384;SDS011;44185;47.844;8.966;2022-09-13T02:56:28;3.30;;;2.50;;
58384;SDS011;44185;47.844;8.966;2022-09-13T02:59:03;3.70;;;2.35;;
58384;SDS011;44185;47.844;8.966;2022-09-13T03:01:33;4.88;;;2.40;;
58384;SDS011;44185;47.844;8.966;2022-09-13T03:04:02;3.15;;;2.63;;
58384;SDS011;44185;47.844;8.966;2022-09-13T03:06:28;4.38;;;2.60;;
58384;SDS011;44185;47.844;8.966;2022-09-13T03:08:54;6.32;;;3.10;;
58384;SDS011;44185;47.844;8.966;2022-09-13T03:11:24;3.90;;;2.53;;
58384;SDS011;44185;47.844;8.966;2022-09-13T03:14:07;3.65;;;2.72;;
58384;SDS011;44185;47.844;8.966;2022-09-13T03:16:47;4.53;;;2.65;;
58384;SDS011;44185;47.844;8.966;2022-09-13T03:19:30;3.00;;;2.35;;
58384;SDS011;44185;47.844;8.966;2022-09-13T03:22:08;2.88;;;2.60;;
58384;SDS011;44185;47.844;8.966;2022-09-13T03:24:49;4.85;;;2.90;;
58384;SDS011;44185;47.844;8.966;2022-09-13T03:27:22;5.05;;;2.63;;
58384;SDS011;44185;47.844;8.966;2022-09-13T03:29:56;5.88;;;3.10;;
58384;SDS011;44185;47.844;8.966;2022-09-13T03:32:28;4.10;;;2.65;;
58384;SDS011;44185;47.844;8.966;2022-09-13T03:35:03;3.42;;;2.50;;
58384;SDS011;44185;47.844;8.966;2022-09-13T03:37:37;4.43;;;2.80;;
58384;SDS011;44185;47.844;8.966;2022-09-13T03:40:12;4.65;;;2.63;;
58384;SDS011;44185;47.844;8.966;2022-09-13T03:42:41;3.00;;;2.63;;
58384;SDS011;44185;47.844;8.966;2022-09-13T03:45:12;4.78;;;2.83;;
58384;SDS011;44185;47.844;8.966;2022-09-13T03:47:41;4.75;;;2.88;;
58384;SDS011;44185;47.844;8.966;2022-09-13T03:50:12;3.25;;;2.63;;
58384;SDS011;44185;47.844;8.966;2022-09-13T03:52:40;3.55;;;2.72;;
58384;SDS011;44185;47.844;8.966;2022-09-13T03:55:07;3.75;;;2.70;;
58384;SDS011;44185;47.844;8.966;2022-09-13T03:57:33;4.07;;;2.90;;
58384;SDS011;44185;47.844;8.966;2022-09-13T03:59:58;4.00;;;2.50;;
58384;SDS011;44185;47.844;8.966;2022-09-13T04:02:25;4.88;;;2.85;;
58384;SDS011;44185;47.844;8.966;2022-09-13T04:04:50;4.07;;;2.60;;
58384;SDS011;44185;47.844;8.966;2022-09-13T04:07:18;2.95;;;2.35;;
58384;SDS011;44185;47.844;8.966;2022-09-13T04:09:44;3.92;;;2.70;;
58384;SDS011;44185;47.844;8.966;2022-09-13T04:12:10;6.15;;;3.35;;
58384;SDS011;44185;47.844;8.966;2022-09-13T04:14:36;3.33;;;2.60;;
58384;SDS011;44185;47.844;8.966;2022-09-13T04:17:02;3.78;;;2.70;;
58384;SDS011;44185;47.844;8.966;2022-09-13T04:19:27;5.40;;;2.70;;
58384;SDS011;44185;47.844;8.966;2022-09-13T04:21:53;4.57;;;2.60;;
58384;SDS011;44185;47.844;8.966;2022-09-13T04:24:24;4.60;;;2.83;;
58384;SDS011;44185;47.844;8.966;2022-09-13T04:26:51;3.13;;;2.58;;
58384;SDS011;44185;47.844;8.966;2022-09-13T04:29:17;7.20;;;3.00;;
58384;SDS011;44185;47.844;8.966;2022-09-13T04:31:42;4.07;;;2.63;;
58384;SDS011;44185;47.844;8.966;2022-09-13T04:34:08;4.72;;;2.38;;
58384;SDS011;44185;47.844;8.966;2022-09-13T04:36:33;4.78;;;2.75;;
58384;SDS011;44185;47.844;8.966;2022-09-13T04:38:59;5.43;;;2.97;;
58384;SDS011;44185;47.844;8.966;2022-09-13T04:41:25;3.25;;;2.95;;
58384;SDS011;44185;47.844;8.966;2022-09-13T04:43:51;4.35;;;2.58;;
58384;SDS011;44185;47.844;8.966;2022-09-13T04:46:16;3.83;;;2.90;;
58384;SDS011;44185;47.844;8.966;2022-09-13T04:48:42;5.65;;;3.10;;
58384;SDS011;44185;47.844;8.966;2022-09-13T04:53:37;3.08;;;2.50;;
58384;SDS011;44185;47.844;8.966;2022-09-13T04:56:02;3.75;;;2.70;;
58384;SDS011;44185;47.844;8.966;2022-09-13T04:58:30;6.00;;;3.00;;
58384;SDS011;44185;47.844;8.966;2022-09-13T05:00:59;3.47;;;2.70;;
58384;SDS011;44185;47.844;8.966;2022-09-13T05:03:25;5.60;;;2.75;;
58384;SDS011;44185;47.844;8.966;2022-09-13T05:05:53;4.22;;;2.63;;
58384;SDS011;44185;47.844;8.966;2022-09-13T05:08:18;4.10;;;2.67;;
58384;SDS011;44185;47.844;8.966;2022-09-13T05:10:45;5.40;;;2.95;;
58384;SDS011;44185;47.844;8.966;2022-09-13T05:13:11;5.65;;;2.88;;
58384;SDS011;44185;47.844;8.966;2022-09-13T05:15:38;4.45;;;2.90;;
58384;SDS011;44185;47.844;8.966;2022-09-13T05:18:03;4.00;;;2.75;;
58384;SDS011;44185;47.844;8.966;2022-09-13T05:20:29;3.65;;;2.60;;
58384;SDS011;44185;47.844;8.966;2022-09-13T05:22:54;3.80;;;2.38;;
58384;SDS011;44185;47.844;8.966;2022-09-13T05:25:20;3.72;;;2.75;;
58384;SDS011;44185;47.844;8.966;2022-09-13T05:27:45;2.60;;;2.40;;
58384;SDS011;44185;47.844;8.966;2022-09-13T05:30:12;6.53;;;2.90;;
58384;SDS011;44185;47.844;8.966;2022-09-13T05:32:38;5.60;;;2.97;;
58384;SDS011;44185;47.844;8.966;2022-09-13T05:35:04;3.70;;;2.90;;
58384;SDS011;44185;47.844;8.966;2022-09-13T05:37:30;3.25;;;2.65;;
58384;SDS011;44185;47.844;8.966;2022-09-13T05:39:55;6.47;;;2.72;;
58384;SDS011;44185;47.844;8.966;2022-09-13T05:42:21;3.40;;;2.85;;
58384;SDS011;44185;47.844;8.966;2022-09-13T05:44:46;4.35;;;2.95;;
58384;SDS011;44185;47.844;8.966;2022-09-13T05:47:12;3.53;;;2.75;;
58384;SDS011;44185;47.844;8.966;2022-09-13T05:49:38;6.40;;;3.33;;
58384;SDS011;44185;47.844;8.966;2022-09-13T05:52:04;5.55;;;3.10;;
58384;SDS011;44185;47.844;8.966;2022-09-13T05:54:29;4.95;;;2.70;;
58384;SDS011;44185;47.844;8.966;2022-09-13T05:56:55;2.88;;;2.58;;
58384;SDS011;44185;47.844;8.966;2022-09-13T05:59:20;2.83;;;2.63;;
58384;SDS011;44185;47.844;8.966;2022-09-13T06:01:47;3.28;;;2.60;;
58384;SDS011;44185;47.844;8.966;2022-09-13T06:04:14;7.15;;;3.25;;
58384;SDS011;44185;47.844;8.966;2022-09-13T06:06:41;3.38;;;3.05;;
58384;SDS011;44185;47.844;8.966;2022-09-13T06:09:06;4.25;;;2.90;;
58384;SDS011;44185;47.844;8.966;2022-09-13T06:11:34;3.40;;;3.10;;
58384;SDS011;44185;47.844;8.966;2022-09-13T06:13:59;7.03;;;3.40;;
58384;SDS011;44185;47.844;8.966;2022-09-13T06:16:25;6.43;;;3.00;;
58384;SDS011;44185;47.844;8.966;2022-09-13T06:18:50;8.65;;;3.10;;
58384;SDS011;44185;47.844;8.966;2022-09-13T06:21:17;5.63;;;3.10;;
58384;SDS011;44185;47.844;8.966;2022-09-13T06:23:45;4.60;;;3.17;;
58384;SDS011;44185;47.844;8.966;2022-09-13T06:26:12;5.18;;;3.10;;
58384;SDS011;44185;47.844;8.966;2022-09-13T06:28:39;4.72;;;2.97;;
58384;SDS011;44185;47.844;8.966;2022-09-13T06:31:06;7.55;;;3.22;;
58384;SDS011;44185;47.844;8.966;2022-09-13T06:33:32;5.57;;;3.30;;
58384;SDS011;44185;47.844;8.966;2022-09-13T06:35:59;4.05;;;2.95;;
58384;SDS011;44185;47.844;8.966;2022-09-13T06:38:24;6.32;;;3.30;;
58384;SDS011;44185;47.844;8.966;2022-09-13T06:40:59;5.68;;;3.55;;
58384;SDS011;44185;47.844;8.966;2022-09-13T06:43:25;7.60;;;3.72;;
58384;SDS011;44185;47.844;8.966;2022-09-13T06:45:50;4.85;;;3.45;;
58384;SDS011;44185;47.844;8.966;2022-09-13T06:48:16;4.32;;;3.30;;
58384;SDS011;44185;47.844;8.966;2022-09-13T06:50:41;6.15;;;3.40;;
58384;SDS011;44185;47.844;8.966;2022-09-13T06:53:07;8.60;;;4.40;;
58384;SDS011;44185;47.844;8.966;2022-09-13T06:55:32;14.75;;;5.28;;
58384;SDS011;44185;47.844;8.966;2022-09-13T06:57:59;9.38;;;3.97;;
58384;SDS011;44185;47.844;8.966;2022-09-13T07:00:24;11.00;;;4.97;;
58384;SDS011;44185;47.844;8.966;2022-09-13T07:02:50;10.57;;;4.28;;
58384;SDS011;44185;47.844;8.966;2022-09-13T07:05:16;7.15;;;4.80;;
58384;SDS011;44185;47.844;8.966;2022-09-13T07:07:41;8.95;;;4.60;;
58384;SDS011;44185;47.844;8.966;2022-09-13T07:10:07;8.63;;;4.32;;
58384;SDS011;44185;47.844;8.966;2022-09-13T07:12:33;8.07;;;4.05;;
58384;SDS011;44185;47.844;8.966;2022-09-13T07:15:00;7.60;;;4.25;;
58384;SDS011;44185;47.844;8.966;2022-09-13T07:17:26;11.93;;;4.93;;
58384;SDS011;44185;47.844;8.966;2022-09-13T07:19:51;12.60;;;5.45;;
58384;SDS011;44185;47.844;8.966;2022-09-13T07:22:17;11.80;;;4.60;;
58384;SDS011;44185;47.844;8.966;2022-09-13T07:24:42;12.60;;;4.77;;
58384;SDS011;44185;47.844;8.966;2022-09-13T07:27:08;11.30;;;5.18;;
58384;SDS011;44185;47.844;8.966;2022-09-13T07:29:33;11.88;;;5.30;;
58384;SDS011;44185;47.844;8.966;2022-09-13T07:32:00;14.55;;;6.25;;
58384;SDS011;44185;47.844;8.966;2022-09-13T07:34:26;12.70;;;6.38;;
58384;SDS011;44185;47.844;8.966;2022-09-13T07:36:52;16.25;;;6.55;;
58384;SDS011;44185;47.844;8.966;2022-09-13T07:39:18;12.93;;;6.65;;
58384;SDS011;44185;47.844;8.966;2022-09-13T07:41:43;15.95;;;7.15;;
58384;SDS011;44185;47.844;8.966;2022-09-13T07:44:10;18.08;;;7.72;;
58384;SDS011;44185;47.844;8.966;2022-09-13T07:46:36;15.85;;;6.90;;
58384;SDS011;44185;47.844;8.966;2022-09-13T07:49:03;16.30;;;8.45;;
58384;SDS011;44185;47.844;8.966;2022-09-13T07:51:29;12.77;;;6.45;;
58384;SDS011;44185;47.844;8.966;2022-09-13T07:53:56;13.57;;;5.88;;
58384;SDS011;44185;47.844;8.966;2022-09-13T07:56:23;12.15;;;6.60;;
58384;SDS011;44185;47.844;8.966;2022-09-13T07:58:51;11.82;;;5.28;;
58384;SDS011;44185;47.844;8.966;2022-09-13T08:01:17;11.48;;;6.00;;
58384;SDS011;44185;47.844;8.966;2022-09-13T08:03:49;11.37;;;5.70;;
58384;SDS011;44185;47.844;8.966;2022-09-13T08:06:17;10.80;;;5.90;;
58384;SDS011;44185;47.844;8.966;2022-09-13T08:08:42;11.07;;;5.25;;
58384;SDS011;44185;47.844;8.966;2022-09-13T08:11:14;9.35;;;5.30;;
58384;SDS011;44185;47.844;8.966;2022-09-13T08:13:41;9.35;;;5.18;;
58384;SDS011;44185;47.844;8.966;2022-09-13T08:16:08;9.00;;;5.00;;
58384;SDS011;44185;47.844;8.966;2022-09-13T08:18:33;7.75;;;4.60;;
58384;SDS011;44185;47.844;8.966;2022-09-13T08:20:59;10.60;;;4.85;;
58384;SDS011;44185;47.844;8.966;2022-09-13T08:23:26;14.10;;;5.25;;
58384;SDS011;44185;47.844;8.966;2022-09-13T08:25:52;8.85;;;4.93;;
58384;SDS011;44185;47.844;8.966;2022-09-13T08:28:18;10.20;;;5.20;;
58384;SDS011;44185;47.844;8.966;2022-09-13T08:30:44;8.93;;;4.57;;
58384;SDS011;44185;47.844;8.966;2022-09-13T08:33:10;9.43;;;5.25;;
58384;SDS011;44185;47.844;8.966;2022-09-13T08:35:36;8.73;;;4.95;;
58384;SDS011;44185;47.844;8.966;2022-09-13T08:38:02;7.82;;;4.78;;
58384;SDS011;44185;47.844;8.966;2022-09-13T08:40:31;12.00;;;5.25;;
58384;SDS011;44185;47.844;8.966;2022-09-13T08:43:04;8.23;;;4.90;;
58384;SDS011;44185;47.844;8.966;2022-09-13T08:45:36;12.88;;;5.28;;
58384;SDS011;44185;47.844;8.966;2022-09-13T08:48:02;9.55;;;4.80;;
58384;SDS011;44185;47.844;8.966;2022-09-13T08:50:33;9.18;;;4.70;;
58384;SDS011;44185;47.844;8.966;2022-09-13T08:53:03;7.72;;;3.88;;
58384;SDS011;44185;47.844;8.966;2022-09-13T08:55:42;7.88;;;4.30;;
58384;SDS011;44185;47.844;8.966;2022-09-13T08:58:27;8.95;;;4.05;;
58384;SDS011;44185;47.844;8.966;2022-09-13T09:01:02;7.05;;;3.90;;
58384;SDS011;44185;47.844;8.966;2022-09-13T09:03:34;5.78;;;3.58;;
58384;SDS011;44185;47.844;8.966;2022-09-13T09:06:07;6.70;;;3.53;;
58384;SDS011;44185;47.844;8.966;2022-09-13T09:08:37;6.82;;;3.67;;
58384;SDS011;44185;47.844;8.966;2022-09-13T09:11:09;4.63;;;3.50;;
58384;SDS011;44185;47.844;8.966;2022-09-13T09:13:47;9.13;;;3.85;;
58384;SDS011;44185;47.844;8.966;2022-09-13T09:16:23;7.82;;;4.20;;
58384;SDS011;44185;47.844;8.966;2022-09-13T09:18:54;8.65;;;4.28;;
58384;SDS011;44185;47.844;8.966;2022-09-13T09:21:21;7.35;;;4.22;;
58384;SDS011;44185;47.844;8.966;2022-09-13T09:23:48;7.15;;;3.65;;
58384;SDS011;44185;47.844;8.966;2022-09-13T09:26:17;6.68;;;3.88;;
58384;SDS011;44185;47.844;8.966;2022-09-13T09:28:45;6.68;;;3.45;;
58384;SDS011;44185;47.844;8.966;2022-09-13T09:31:13;9.02;;;3.38;;
58384;SDS011;44185;47.844;8.966;2022-09-13T09:33:48;9.70;;;3.67;;
58384;SDS011;44185;47.844;8.966;2022-09-13T09:36:29;7.10;;;3.17;;
58384;SDS011;44185;47.844;8.966;2022-09-13T09:39:02;3.15;;;2.70;;
58384;SDS011;44185;47.844;8.966;2022-09-13T09:41:30;5.25;;;2.60;;
58384;SDS011;44185;47.844;8.966;2022-09-13T09:43:59;7.72;;;3.20;;
58384;SDS011;44185;47.844;8.966;2022-09-13T09:46:34;4.50;;;2.92;;
58384;SDS011;44185;47.844;8.966;2022-09-13T09:49:04;3.70;;;2.65;;
58384;SDS011;44185;47.844;8.966;2022-09-13T09:51:37;5.10;;;3.05;;
58384;SDS011;44185;47.844;8.966;2022-09-13T09:54:02;6.40;;;3.35;;
58384;SDS011;44185;47.844;8.966;2022-09-13T09:56:31;8.00;;;3.75;;
58384;SDS011;44185;47.844;8.966;2022-09-13T09:58:58;8.13;;;2.90;;
58384;SDS011;44185;47.844;8.966;2022-09-13T10:01:24;7.90;;;3.30;;
58384;SDS011;44185;47.844;8.966;2022-09-13T10:04:02;5.28;;;3.20;;
58384;SDS011;44185;47.844;8.966;2022-09-13T10:06:30;5.18;;;3.10;;
58384;SDS011;44185;47.844;8.966;2022-09-13T10:08:57;6.90;;;3.03;;
58384;SDS011;44185;47.844;8.966;2022-09-13T10:11:37;5.65;;;2.97;;
58384;SDS011;44185;47.844;8.966;2022-09-13T10:14:21;6.82;;;3.70;;
58384;SDS011;44185;47.844;8.966;2022-09-13T10:17:00;5.40;;;2.97;;
58384;SDS011;44185;47.844;8.966;2022-09-13T10:19:26;4.88;;;3.25;;
58384;SDS011;44185;47.844;8.966;2022-09-13T10:21:59;5.75;;;3.13;;
58384;SDS011;44185;47.844;8.966;2022-09-13T10:24:25;7.35;;;3.22;;
58384;SDS011;44185;47.844;8.966;2022-09-13T10:26:53;4.45;;;2.88;;
58384;SDS011;44185;47.844;8.966;2022-09-13T10:29:18;4.65;;;2.80;;
58384;SDS011;44185;47.844;8.966;2022-09-13T10:31:44;5.85;;;2.92;;
58384;SDS011;44185;47.844;8.966;2022-09-13T10:34:15;5.40;;;2.70;;
58384;SDS011;44185;47.844;8.966;2022-09-13T10:36:47;5.00;;;2.78;;
58384;SDS011;44185;47.844;8.966;2022-09-13T10:39:18;3.90;;;2.90;;
58384;SDS011;44185;47.844;8.966;2022-09-13T10:41:48;4.03;;;2.97;;
58384;SDS011;44185;47.844;8.966;2022-09-13T10:44:23;4.38;;;2.70;;
58384;SDS011;44185;47.844;8.966;2022-09-13T10:46:52;4.65;;;2.78;;
58384;SDS011;44185;47.844;8.966;2022-09-13T10:49:34;4.40;;;2.70;;
58384;SDS011;44185;47.844;8.966;2022-09-13T10:52:23;4.65;;;2.70;;
58384;SDS011;44185;47.844;8.966;2022-09-13T10:54:54;3.60;;;2.50;;
58384;SDS011;44185;47.844;8.966;2022-09-13T10:57:28;7.78;;;2.95;;
58384;SDS011;44185;47.844;8.966;2022-09-13T10:59:58;8.52;;;3.22;;
58384;SDS011;44185;47.844;8.966;2022-09-13T11:05:21;10.30;;;3.75;;
58384;SDS011;44185;47.844;8.966;2022-09-13T11:07:55;7.70;;;3.00;;
58384;SDS011;44185;47.844;8.966;2022-09-13T11:10:44;10.23;;;3.63;;
58384;SDS011;44185;47.844;8.966;2022-09-13T11:13:20;8.40;;;3.45;;
58384;SDS011;44185;47.844;8.966;2022-09-13T11:15:56;6.10;;;3.15;;
58384;SDS011;44185;47.844;8.966;2022-09-13T11:18:39;10.23;;;3.78;;
58384;SDS011;44185;47.844;8.966;2022-09-13T11:21:21;8.88;;;3.60;;
58384;SDS011;44185;47.844;8.966;2022-09-13T11:24:07;6.95;;;3.20;;
58384;SDS011;44185;47.844;8.966;2022-09-13T11:26:44;8.60;;;3.80;;
58384;SDS011;44185;47.844;8.966;2022-09-13T11:29:19;9.30;;;4.03;;
58384;SDS011;44185;47.844;8.966;2022-09-13T11:31:58;6.70;;;2.95;;
58384;SDS011;44185;47.844;8.966;2022-09-13T11:34:36;7.70;;;3.40;;
58384;SDS011;44185;47.844;8.966;2022-09-13T11:37:15;9.52;;;3.38;;
58384;SDS011;44185;47.844;8.966;2022-09-13T11:39:55;8.50;;;3.83;;
58384;SDS011;44185;47.844;8.966;2022-09-13T11:42:31;9.38;;;3.45;;
58384;SDS011;44185;47.844;8.966;2022-09-13T11:47:57;5.18;;;2.92;;
58384;SDS011;44185;47.844;8.966;2022-09-13T11:50:34;6.47;;;2.67;;
58384;SDS011;44185;47.844;8.966;2022-09-13T11:53:09;7.15;;;3.20;;
58384;SDS011;44185;47.844;8.966;2022-09-13T11:55:48;4.13;;;2.60;;
58384;SDS011;44185;47.844;8.966;2022-09-13T11:58:18;5.97;;;2.80;;
58384;SDS011;44185;47.844;8.966;2022-09-13T12:00:48;6.78;;;3.45;;
58384;SDS011;44185;47.844;8.966;2022-09-13T12:03:20;8.82;;;2.92;;
58384;SDS011;44185;47.844;8.966;2022-09-13T12:05:54;4.38;;;2.85;;
58384;SDS011;44185;47.844;8.966;2022-09-13T12:08:24;4.10;;;2.58;;
58384;SDS011;44185;47.844;8.966;2022-09-13T12:10:54;7.18;;;2.95;;
58384;SDS011;44185;47.844;8.966;2022-09-13T12:13:21;5.65;;;2.80;;
58384;SDS011;44185;47.844;8.966;2022-09-13T12:15:51;7.63;;;3.10;;
58384;SDS011;44185;47.844;8.966;2022-09-13T12:18:22;5.87;;;2.90;;
58384;SDS011;44185;47.844;8.966;2022-09-13T12:20:51;7.20;;;2.85;;
58384;SDS011;44185;47.844;8.966;2022-09-13T12:23:19;9.73;;;3.27;;
58384;SDS011;44185;47.844;8.966;2022-09-13T12:25:56;8.50;;;2.83;;
58384;SDS011;44185;47.844;8.966;2022-09-13T12:28:25;7.80;;;3.03;;
58384;SDS011;44185;47.844;8.966;2022-09-13T12:30:54;9.35;;;4.32;;
58384;SDS011;44185;47.844;8.966;2022-09-13T12:33:24;11.45;;;4.90;;
58384;SDS011;44185;47.844;8.966;2022-09-13T12:35:52;9.98;;;3.88;;
58384;SDS011;44185;47.844;8.966;2022-09-13T12:41:21;9.68;;;3.38;;
58384;SDS011;44185;47.844;8.966;2022-09-13T12:44:04;6.53;;;2.70;;
58384;SDS011;44185;47.844;8.966;2022-09-13T12:46:57;5.10;;;2.63;;
58384;SDS011;44185;47.844;8.966;2022-09-13T12:49:43;6.70;;;2.90;;
58384;SDS011;44185;47.844;8.966;2022-09-13T12:52:25;8.70;;;2.72;;
58384;SDS011;44185;47.844;8.966;2022-09-13T12:55:18;6.72;;;3.03;;
58384;SDS011;44185;47.844;8.966;2022-09-13T12:57:57;10.10;;;2.72;;
58384;SDS011;44185;47.844;8.966;2022-09-13T13:00:39;6.78;;;2.50;;
58384;SDS011;44185;47.844;8.966;2022-09-13T13:03:12;8.05;;;2.80;;
58384;SDS011;44185;47.844;8.966;2022-09-13T13:05:44;3.67;;;2.55;;
58384;SDS011;44185;47.844;8.966;2022-09-13T13:08:24;4.38;;;2.55;;
58384;SDS011;44185;47.844;8.966;2022-09-13T13:10:59;3.83;;;2.58;;
58384;SDS011;44185;47.844;8.966;2022-09-13T13:13:29;7.13;;;2.30;;
58384;SDS011;44185;47.844;8.966;2022-09-13T13:16:00;3.90;;;2.53;;
58384;SDS011;44185;47.844;8.966;2022-09-13T13:26:58;3.78;;;2.67;;
58384;SDS011;44185;47.844;8.966;2022-09-13T13:29:24;3.47;;;2.47;;
58384;SDS011;44185;47.844;8.966;2022-09-13T13:32:08;4.88;;;2.90;;
58384;SDS011;44185;47.844;8.966;2022-09-13T13:34:37;3.97;;;2.40;;
58384;SDS011;44185;47.844;8.966;2022-09-13T13:37:29;3.53;;;2.50;;
58384;SDS011;44185;47.844;8.966;2022-09-13T13:48:52;5.38;;;3.13;;
58384;SDS011;44185;47.844;8.966;2022-09-13T13:51:19;3.50;;;2.40;;
58384;SDS011;44185;47.844;8.966;2022-09-13T13:53:49;22.30;;;8.53;;
58384;SDS011;44185;47.844;8.966;2022-09-13T13:56:18;3.80;;;2.45;;
58384;SDS011;44185;47.844;8.966;2022-09-13T13:58:49;4.20;;;2.33;;
58384;SDS011;44185;47.844;8.966;2022-09-13T14:01:20;8.52;;;2.72;;
58384;SDS011;44185;47.844;8.966;2022-09-13T14:03:49;7.70;;;2.83;;
58384;SDS011;44185;47.844;8.966;2022-09-13T14:06:25;7.68;;;2.90;;
58384;SDS011;44185;47.844;8.966;2022-09-13T14:09:00;5.28;;;2.42;;
58384;SDS011;44185;47.844;8.966;2022-09-13T14:11:40;9.05;;;2.78;;
58384;SDS011;44185;47.844;8.966;2022-09-13T14:14:28;8.57;;;2.60;;
58384;SDS011;44185;47.844;8.966;2022-09-13T14:19:58;9.27;;;2.70;;
58384;SDS011;44185;47.844;8.966;2022-09-13T14:22:27;12.70;;;2.95;;
58384;SDS011;44185;47.844;8.966;2022-09-13T14:24:54;9.65;;;2.85;;
58384;SDS011;44185;47.844;8.966;2022-09-13T14:27:21;4.50;;;2.55;;
58384;SDS011;44185;47.844;8.966;2022-09-13T14:29:49;7.30;;;2.60;;
58384;SDS011;44185;47.844;8.966;2022-09-13T14:32:17;8.05;;;2.63;;
58384;SDS011;44185;47.844;8.966;2022-09-13T14:34:52;6.47;;;2.47;;
58384;SDS011;44185;47.844;8.966;2022-09-13T14:37:23;3.65;;;2.33;;
58384;SDS011;44185;47.844;8.966;2022-09-13T14:39:57;4.85;;;2.42;;
58384;SDS011;44185;47.844;8.966;2022-09-13T14:42:24;2.50;;;2.25;;
58384;SDS011;44185;47.844;8.966;2022-09-13T14:44:50;3.50;;;2.20;;
58384;SDS011;44185;47.844;8.966;2022-09-13T14:47:17;5.38;;;2.33;;
58384;SDS011;44185;47.844;8.966;2022-09-13T14:49:50;7.68;;;2.92;;
58384;SDS011;44185;47.844;8.966;2022-09-13T14:52:23;2.70;;;2.28;;
58384;SDS011;44185;47.844;8.966;2022-09-13T14:54:53;3.92;;;2.42;;
58384;SDS011;44185;47.844;8.966;2022-09-13T14:57:25;3.93;;;2.27;;
58384;SDS011;44185;47.844;8.966;2022-09-13T14:59:55;4.97;;;2.20;;
58384;SDS011;44185;47.844;8.966;2022-09-13T15:02:24;3.83;;;2.50;;
58384;SDS011;44185;47.844;8.966;2022-09-13T15:04:54;4.07;;;2.50;;
58384;SDS011;44185;47.844;8.966;2022-09-13T15:07:22;4.88;;;2.70;;
58384;SDS011;44185;47.844;8.966;2022-09-13T15:09:54;5.75;;;2.60;;
58384;SDS011;44185;47.844;8.966;2022-09-13T15:12:23;4.57;;;2.50;;
58384;SDS011;44185;47.844;8.966;2022-09-13T15:17:51;3.63;;;2.30;;
58384;SDS011;44185;47.844;8.966;2022-09-13T15:20:20;3.08;;;2.20;;
58384;SDS011;44185;47.844;8.966;2022-09-13T15:22:47;7.28;;;2.85;;
58384;SDS011;44185;47.844;8.966;2022-09-13T15:25:16;3.00;;;2.50;;
58384;SDS011;44185;47.844;8.966;2022-09-13T15:27:47;4.05;;;2.40;;
58384;SDS011;44185;47.844;8.966;2022-09-13T15:30:20;4.28;;;2.47;;
58384;SDS011;44185;47.844;8.966;2022-09-13T15:32:49;2.70;;;2.20;;
58384;SDS011;44185;47.844;8.966;2022-09-13T15:35:28;3.67;;;2.40;;
58384;SDS011;44185;47.844;8.966;2022-09-13T15:37:58;3.05;;;2.45;;
58384;SDS011;44185;47.844;8.966;2022-09-13T15:40:24;6.40;;;2.35;;
58384;SDS011;44185;47.844;8.966;2022-09-13T15:42:53;4.75;;;2.40;;